Lavaca Bay — WDF2105 — position and weather

sailwx.info

Track history (hours):
 
Tides and Currents Weather Stations Pressure Air Temp Water Temp Dewpoint Dewpoint Depression Visibility Wind Speed Wind Dir Waves Ship Positions

Lavaca Bay

More information available from US FCC via Universal Licensing System and Coast Guard Vessel Documentation Center.

Last reported at 2014-Aug-11 09:15 UTC. Time now 2014-Sep-03 02:23 UTC.
Position N 30°44' W 091°33'.
Warning: this ship's position is 22 days out of date.

Length 24 m; draft 3 m.

Type: Towing. MMSI: 367424940.

Date/timePositionNaut miles runAvg speedWind from/ knotsBaromVisibWave heightAir tempDewpointWater temp
2014-Aug-11 09:15N 30°44' W 091°33'11 3.9
2014-Aug-11 06:30N 30°41' W 091°21'4 4.4
2014-Aug-11 05:33N 30°38' W 091°18'25 2.8
2014-Aug-10 20:33N 30°14' W 091°08'3 2.5
2014-Aug-10 19:28N 30°12' W 091°07'20 3.8
2014-Aug-10 14:09N 29°59' W 090°49'4 6.1
2014-Aug-10 13:33N 30°01' W 090°45'14 4.7
2014-Aug-10 10:31N 30°00' W 090°28'5 5.2
2014-Aug-10 09:32N 29°57' W 090°23'0 0.1
2014-Aug-10 08:33N 29°57' W 090°23'4 0.2
2014-Aug-09 08:09N 29°56' W 090°19'0 0.0
2014-Aug-09 05:28N 29°56' W 090°19'  
Track history (hours):
 
Tides and Currents Weather Stations Pressure Air Temp Water Temp Dewpoint Dewpoint Depression Visibility Wind Speed Wind Dir Waves Ship Positions

Lavaca Bay

More information available from US FCC via Universal Licensing System and Coast Guard Vessel Documentation Center.

Last reported at 2014-Aug-11 09:15 UTC. Time now 2014-Sep-03 02:23 UTC.
Position N 30°44' W 091°33'.
Warning: this ship's position is 22 days out of date.

Length 24 m; draft 3 m.

Type: Towing. MMSI: 367424940.

Date/timePositionNaut miles runAvg speedWind from/ knotsBaromVisibWave heightAir tempDewpointWater temp
2014-Aug-11 09:15N 30°44' W 091°33'11 3.9
2014-Aug-11 06:30N 30°41' W 091°21'4 4.4
2014-Aug-11 05:33N 30°38' W 091°18'25 2.8
2014-Aug-10 20:33N 30°14' W 091°08'3 2.5
2014-Aug-10 19:28N 30°12' W 091°07'20 3.8
2014-Aug-10 14:09N 29°59' W 090°49'4 6.1
2014-Aug-10 13:33N 30°01' W 090°45'14 4.7
2014-Aug-10 10:31N 30°00' W 090°28'5 5.2
2014-Aug-10 09:32N 29°57' W 090°23'0 0.1
2014-Aug-10 08:33N 29°57' W 090°23'4 0.2
2014-Aug-09 08:09N 29°56' W 090°19'0 0.0
2014-Aug-09 05:28N 29°56' W 090°19'  

Dump ship's entire track history